createdAt,value
2023-02-27T00:00:14.239Z,3.70
2023-02-27T00:02:42.559Z,3.75
2023-02-27T00:05:11.056Z,3.85
2023-02-27T00:07:39.272Z,3.70
2023-02-27T00:10:09.583Z,3.75
2023-02-27T00:12:38.843Z,4.28
2023-02-27T00:15:07.869Z,3.92
2023-02-27T00:17:35.423Z,3.83
2023-02-27T00:20:03.097Z,4.13
2023-02-27T00:22:30.603Z,4.00
2023-02-27T00:24:58.174Z,4.13
2023-02-27T00:27:27.057Z,4.05
2023-02-27T00:29:54.540Z,4.00
2023-02-27T00:32:22.123Z,4.68
2023-02-27T00:34:49.625Z,4.50
2023-02-27T00:37:17.175Z,4.45
2023-02-27T00:39:44.621Z,4.25
2023-02-27T00:42:12.121Z,4.63
2023-02-27T00:44:41.281Z,4.30
2023-02-27T00:47:09.021Z,4.57
2023-02-27T00:49:36.493Z,4.38
2023-02-27T00:52:03.980Z,3.67
2023-02-27T00:54:31.419Z,3.97
2023-02-27T00:56:58.864Z,4.18
2023-02-27T00:59:26.292Z,4.38
2023-02-27T01:01:55.111Z,4.18
2023-02-27T01:04:22.583Z,4.38
2023-02-27T01:06:50.156Z,4.20
2023-02-27T01:09:17.642Z,4.20
2023-02-27T01:11:45.404Z,4.30
2023-02-27T01:14:13.230Z,4.53
2023-02-27T01:16:40.774Z,4.68
2023-02-27T01:19:09.788Z,4.93
2023-02-27T01:21:37.278Z,4.63
2023-02-27T01:24:05.092Z,4.85
2023-02-27T01:26:32.582Z,4.32
2023-02-27T01:29:00.260Z,4.75
2023-02-27T01:31:28.118Z,4.60
2023-02-27T01:33:55.827Z,4.28
2023-02-27T01:36:24.889Z,4.63
2023-02-27T01:38:52.348Z,4.85
2023-02-27T01:41:19.806Z,4.75
2023-02-27T01:43:58.651Z,5.85
2023-02-27T01:46:27.024Z,5.45
2023-02-27T01:48:59.545Z,5.18
2023-02-27T01:51:32.813Z,4.70
2023-02-27T01:54:01.113Z,6.00
2023-02-27T01:56:32.188Z,5.28
2023-02-27T01:59:03.804Z,5.68
2023-02-27T02:01:33.253Z,5.25
2023-02-27T02:04:06.778Z,5.35
2023-02-27T02:06:40.808Z,4.95
2023-02-27T02:09:10.636Z,4.53
2023-02-27T02:11:39.878Z,4.60
2023-02-27T02:14:10.631Z,4.93
2023-02-27T02:17:07.560Z,4.15
2023-02-27T02:19:57.082Z,4.20
2023-02-27T02:23:00.671Z,4.60
2023-02-27T02:25:53.763Z,4.65
2023-02-27T02:28:40.815Z,4.90
2023-02-27T02:31:35.096Z,4.40
2023-02-27T02:34:31.933Z,4.30
2023-02-27T02:37:48.736Z,4.40
2023-02-27T02:40:28.736Z,4.07
2023-02-27T02:43:06.948Z,4.70
2023-02-27T02:45:42.432Z,4.70
2023-02-27T02:50:49.337Z,4.53
2023-02-27T02:53:36.148Z,4.50
2023-02-27T02:56:11.904Z,4.97
2023-02-27T02:58:47.760Z,4.47
2023-02-27T03:01:17.783Z,4.93
2023-02-27T03:03:50.958Z,4.30
2023-02-27T03:06:23.145Z,4.05
2023-02-27T03:08:56.505Z,4.43
2023-02-27T03:11:29.252Z,4.32
2023-02-27T03:14:03.189Z,5.05
2023-02-27T03:16:34.368Z,5.18
2023-02-27T03:19:08.978Z,4.88
2023-02-27T03:21:39.819Z,4.50
2023-02-27T03:24:11.200Z,5.35
2023-02-27T03:26:44.621Z,4.78
2023-02-27T03:29:15.561Z,5.00
2023-02-27T03:31:47.611Z,4.47
2023-02-27T03:34:20.098Z,5.22
2023-02-27T03:36:55.238Z,5.07
2023-02-27T03:39:31.108Z,4.80
2023-02-27T03:42:10.276Z,5.10
2023-02-27T03:44:51.554Z,5.03
2023-02-27T03:47:20.693Z,5.05
2023-02-27T03:49:50.969Z,5.20
2023-02-27T03:52:19.338Z,5.22
2023-02-27T03:54:54.108Z,5.13
2023-02-27T03:57:23.512Z,4.93
2023-02-27T03:59:51.216Z,5.55
2023-02-27T04:02:18.778Z,5.30
2023-02-27T04:04:46.401Z,4.80
2023-02-27T04:07:25.529Z,5.43
2023-02-27T04:10:20.368Z,5.32
2023-02-27T04:13:24.441Z,5.35
2023-02-27T04:16:06.574Z,5.43
2023-02-27T04:18:52.140Z,5.28
2023-02-27T04:21:27.946Z,5.38
2023-02-27T04:24:03.076Z,5.15
2023-02-27T04:26:34.191Z,5.30
2023-02-27T04:29:08.754Z,5.10
2023-02-27T04:31:46.221Z,4.77
2023-02-27T04:34:21.587Z,4.78
2023-02-27T04:36:54.808Z,5.00
2023-02-27T04:39:27.504Z,4.60
2023-02-27T04:41:59.104Z,5.10
2023-02-27T04:44:29.702Z,4.85
2023-02-27T04:46:59.345Z,4.78
2023-02-27T04:49:30.620Z,4.78
2023-02-27T04:52:02.232Z,4.85
2023-02-27T04:54:34.818Z,5.20
2023-02-27T04:57:08.766Z,4.78
2023-02-27T04:59:41.345Z,4.60
2023-02-27T05:02:14.670Z,5.22
2023-02-27T05:04:45.347Z,4.55
2023-02-27T05:07:19.822Z,4.38
2023-02-27T05:09:52.005Z,4.87
2023-02-27T05:12:26.270Z,4.85
2023-02-27T05:14:59.964Z,4.90
2023-02-27T05:17:32.729Z,3.78
2023-02-27T05:20:00.987Z,4.78
2023-02-27T05:22:37.393Z,4.85
2023-02-27T05:25:11.859Z,4.30
2023-02-27T05:27:42.997Z,4.57
2023-02-27T05:30:21.020Z,4.75
2023-02-27T05:32:54.335Z,4.78
2023-02-27T05:35:29.406Z,4.82
2023-02-27T05:38:04.116Z,5.50
2023-02-27T05:43:07.474Z,5.03
2023-02-27T05:45:40.192Z,4.90
2023-02-27T05:48:12.452Z,4.85
2023-02-27T05:50:41.629Z,4.97
2023-02-27T05:53:11.993Z,5.30
2023-02-27T05:55:43.426Z,4.57
2023-02-27T05:58:17.695Z,5.35
2023-02-27T06:00:51.223Z,5.10
2023-02-27T06:03:19.033Z,5.22
2023-02-27T06:05:47.906Z,4.97
2023-02-27T06:08:15.355Z,5.10
2023-02-27T06:10:42.801Z,5.10
2023-02-27T06:13:10.253Z,5.75
2023-02-27T06:15:37.714Z,5.03
2023-02-27T06:18:06.629Z,4.50
2023-02-27T06:20:34.074Z,4.93
2023-02-27T06:23:01.514Z,5.53
2023-02-27T06:25:29.105Z,5.57
2023-02-27T06:27:56.533Z,4.65
2023-02-27T06:30:24.007Z,5.05
2023-02-27T06:32:51.765Z,4.93
2023-02-27T06:35:20.813Z,5.13
2023-02-27T06:37:48.315Z,5.18
2023-02-27T06:40:16.418Z,5.90
2023-02-27T06:42:45.080Z,5.85
2023-02-27T06:45:14.788Z,5.40
2023-02-27T06:47:43.096Z,6.10
2023-02-27T06:50:13.455Z,5.47
2023-02-27T06:52:42.328Z,5.53
2023-02-27T06:55:11.204Z,5.93
2023-02-27T06:57:38.828Z,6.40
2023-02-27T07:00:08.212Z,6.18
2023-02-27T07:02:35.708Z,7.45
2023-02-27T07:05:07.929Z,7.68
2023-02-27T07:07:38.319Z,6.50
2023-02-27T07:10:12.088Z,5.95
2023-02-27T07:12:39.689Z,5.88
2023-02-27T07:15:08.490Z,5.88
2023-02-27T07:17:35.957Z,5.68
2023-02-27T07:20:04.036Z,6.40
2023-02-27T07:22:31.563Z,6.00
2023-02-27T07:24:59.047Z,5.82
2023-02-27T07:27:27.918Z,5.57
2023-02-27T07:29:58.137Z,5.30
2023-02-27T07:32:25.793Z,5.70
2023-02-27T07:34:53.296Z,6.18
2023-02-27T07:37:20.746Z,5.32
2023-02-27T07:39:48.184Z,5.57
2023-02-27T07:42:15.620Z,5.97
2023-02-27T07:44:44.391Z,6.47
2023-02-27T07:47:12.545Z,5.65
2023-02-27T07:49:39.980Z,6.45
2023-02-27T07:52:08.225Z,5.63
2023-02-27T07:54:37.449Z,5.78
2023-02-27T07:57:05.012Z,5.25
2023-02-27T07:59:32.799Z,4.82
2023-02-27T08:02:01.602Z,5.07
2023-02-27T08:04:29.102Z,5.20
2023-02-27T08:06:57.275Z,4.80
2023-02-27T08:09:24.750Z,5.40
2023-02-27T08:11:52.196Z,5.63
2023-02-27T08:14:19.637Z,5.50
2023-02-27T08:16:47.105Z,4.78
2023-02-27T08:19:16.194Z,5.90
2023-02-27T08:21:43.793Z,5.53
2023-02-27T08:24:11.598Z,4.97
2023-02-27T08:26:39.049Z,4.90
2023-02-27T08:29:06.514Z,5.32
2023-02-27T08:31:34.492Z,4.72
2023-02-27T08:34:09.938Z,5.00
2023-02-27T08:36:39.783Z,4.75
2023-02-27T08:39:08.411Z,4.43
2023-02-27T08:41:36.122Z,4.20
2023-02-27T08:44:04.096Z,4.80
2023-02-27T08:46:31.620Z,4.80
2023-02-27T08:48:59.210Z,5.18
2023-02-27T08:51:27.120Z,4.65
2023-02-27T08:53:58.844Z,5.10
2023-02-27T08:56:27.143Z,5.10
2023-02-27T08:58:55.016Z,4.60
2023-02-27T09:01:22.780Z,4.80
2023-02-27T09:03:50.335Z,5.20
2023-02-27T09:06:17.822Z,5.40
2023-02-27T09:08:45.410Z,4.70
2023-02-27T09:11:14.219Z,4.45
2023-02-27T09:13:41.701Z,4.80
2023-02-27T09:16:10.106Z,5.45
2023-02-27T09:18:37.859Z,5.05
2023-02-27T09:21:05.502Z,5.18
2023-02-27T09:23:33.007Z,5.05
2023-02-27T09:26:00.505Z,4.45
2023-02-27T09:28:29.303Z,5.03
2023-02-27T09:30:57.283Z,4.72
2023-02-27T09:33:29.112Z,4.43
2023-02-27T09:35:56.785Z,4.22
2023-02-27T09:38:24.240Z,4.68
2023-02-27T09:40:54.975Z,4.72
2023-02-27T09:43:26.180Z,4.50
2023-02-27T09:45:57.509Z,4.45
2023-02-27T09:48:31.081Z,4.30
2023-02-27T09:50:59.953Z,4.63
2023-02-27T09:53:31.808Z,3.60
2023-02-27T09:56:08.884Z,3.30
2023-02-27T09:58:44.485Z,3.75
2023-02-27T10:01:19.987Z,3.58
2023-02-27T10:04:13.803Z,3.67
2023-02-27T10:06:44.772Z,3.38
2023-02-27T10:09:33.916Z,3.15
2023-02-27T10:12:13.726Z,3.30
2023-02-27T10:14:44.296Z,3.25
2023-02-27T10:17:20.993Z,3.25
2023-02-27T10:19:50.134Z,3.00
2023-02-27T10:22:24.455Z,3.45
2023-02-27T10:24:57.012Z,3.53
2023-02-27T10:27:24.527Z,2.92
2023-02-27T10:29:54.158Z,2.60
2023-02-27T10:32:25.772Z,3.50
2023-02-27T10:35:00.860Z,2.75
2023-02-27T10:37:30.302Z,3.03
2023-02-27T10:40:01.112Z,2.65
2023-02-27T10:42:32.943Z,3.08
2023-02-27T10:45:00.518Z,3.08
2023-02-27T10:47:29.663Z,3.30
2023-02-27T10:50:00.206Z,2.90
2023-02-27T10:52:27.758Z,2.85
2023-02-27T10:54:55.280Z,3.00
2023-02-27T10:57:30.274Z,2.78
2023-02-27T11:00:00.610Z,2.65
2023-02-27T11:02:35.047Z,3.13
2023-02-27T11:05:03.322Z,2.73
2023-02-27T11:07:34.507Z,2.60
2023-02-27T11:10:17.119Z,2.33
2023-02-27T11:12:59.141Z,2.20
2023-02-27T11:15:28.396Z,2.58
2023-02-27T11:18:25.551Z,2.22
2023-02-27T11:20:53.150Z,2.17
2023-02-27T11:23:22.348Z,2.30
2023-02-27T11:25:50.938Z,2.30
2023-02-27T11:28:24.316Z,2.10
2023-02-27T11:31:00.576Z,2.40
2023-02-27T11:33:32.669Z,2.25
2023-02-27T11:36:01.397Z,2.38
2023-02-27T11:38:31.216Z,2.40
2023-02-27T11:41:02.075Z,2.88
2023-02-27T11:43:32.680Z,3.58
2023-02-27T11:46:13.991Z,4.03
2023-02-27T11:48:53.797Z,2.90
2023-02-27T11:51:33.959Z,2.83
2023-02-27T11:54:13.837Z,2.88
2023-02-27T11:56:45.237Z,3.20
2023-02-27T11:59:28.250Z,3.28
2023-02-27T12:02:02.633Z,2.83
2023-02-27T12:04:42.371Z,3.20
2023-02-27T12:07:16.711Z,3.20
2023-02-27T12:09:51.246Z,3.78
2023-02-27T12:12:25.073Z,4.13
2023-02-27T12:15:03.052Z,2.90
2023-02-27T12:17:35.955Z,3.42
2023-02-27T12:20:23.243Z,3.10
2023-02-27T12:22:53.710Z,3.10
2023-02-27T12:25:35.669Z,3.10
2023-02-27T12:28:09.661Z,2.63
2023-02-27T12:30:42.986Z,2.78
2023-02-27T12:33:21.732Z,3.20
2023-02-27T12:35:58.297Z,2.97
2023-02-27T12:38:25.801Z,2.80
2023-02-27T12:41:04.965Z,3.22
2023-02-27T12:43:44.454Z,2.95
2023-02-27T12:46:28.996Z,3.10
2023-02-27T12:49:16.667Z,2.95
2023-02-27T12:51:55.252Z,2.88
2023-02-27T12:54:33.938Z,3.00
2023-02-27T12:57:22.527Z,3.05
2023-02-27T13:00:06.340Z,2.70
2023-02-27T13:02:46.664Z,3.00
2023-02-27T13:05:32.841Z,2.83
2023-02-27T13:08:25.808Z,2.95
2023-02-27T13:11:00.445Z,2.70
2023-02-27T13:13:32.360Z,2.90
2023-02-27T13:16:05.632Z,2.85
2023-02-27T13:18:39.812Z,3.35
2023-02-27T13:21:13.586Z,2.83
2023-02-27T13:23:55.536Z,3.15
2023-02-27T13:26:27.979Z,2.72
2023-02-27T13:28:56.386Z,3.08
2023-02-27T13:31:35.093Z,2.83
2023-02-27T13:34:15.378Z,2.83
2023-02-27T13:36:46.899Z,2.97
2023-02-27T13:39:42.341Z,2.65
2023-02-27T13:42:43.007Z,2.47
2023-02-27T13:45:43.730Z,2.60
2023-02-27T13:48:40.924Z,3.20
2023-02-27T13:51:41.786Z,2.47
2023-02-27T13:54:30.142Z,2.80
2023-02-27T13:57:18.794Z,2.42
2023-02-27T13:59:54.349Z,2.80
2023-02-27T14:02:33.997Z,2.63
2023-02-27T14:05:06.179Z,2.58
2023-02-27T14:07:47.954Z,2.95
2023-02-27T14:10:22.957Z,3.00
2023-02-27T14:12:52.913Z,3.40
2023-02-27T14:15:53.627Z,3.03
2023-02-27T14:18:56.519Z,3.38
2023-02-27T14:22:03.484Z,3.05
2023-02-27T14:24:41.359Z,4.07
2023-02-27T14:27:20.060Z,3.22
2023-02-27T14:29:51.506Z,3.28
2023-02-27T14:32:22.773Z,3.40
2023-02-27T14:34:51.892Z,3.42
2023-02-27T14:37:23.510Z,3.22
2023-02-27T14:39:52.475Z,3.47
2023-02-27T14:42:38.554Z,3.85
2023-02-27T14:45:14.730Z,3.03
2023-02-27T14:47:42.712Z,3.25
2023-02-27T14:50:24.697Z,3.60
2023-02-27T14:52:52.190Z,3.33
2023-02-27T14:55:27.701Z,3.60
2023-02-27T14:57:57.328Z,3.80
2023-02-27T15:00:39.140Z,3.53
2023-02-27T15:03:17.426Z,3.75
2023-02-27T15:05:45.387Z,3.78
2023-02-27T15:08:18.086Z,3.83
2023-02-27T15:10:45.769Z,3.90
2023-02-27T15:13:24.660Z,3.90
2023-02-27T15:16:21.710Z,3.63
2023-02-27T15:18:50.854Z,3.47
2023-02-27T15:21:20.889Z,3.13
2023-02-27T15:23:55.208Z,3.80
2023-02-27T15:26:22.950Z,3.63
2023-02-27T15:28:50.652Z,3.47
2023-02-27T15:31:22.553Z,3.60
2023-02-27T15:33:51.337Z,3.53
2023-02-27T15:36:25.089Z,3.40
2023-02-27T15:39:06.732Z,3.80
2023-02-27T15:41:34.988Z,3.50
2023-02-27T15:44:03.336Z,3.60
2023-02-27T15:46:33.539Z,3.33
2023-02-27T15:49:01.187Z,3.45
2023-02-27T15:51:29.761Z,3.90
2023-02-27T15:54:01.200Z,3.60
2023-02-27T15:56:33.491Z,3.55
2023-02-27T15:59:02.117Z,4.10
2023-02-27T16:01:34.832Z,3.88
2023-02-27T16:04:05.979Z,3.97
2023-02-27T16:06:35.905Z,3.63
2023-02-27T16:09:07.389Z,3.58
2023-02-27T16:11:37.412Z,3.67
2023-02-27T16:14:05.857Z,3.47
2023-02-27T16:16:36.173Z,3.40
2023-02-27T16:19:16.458Z,3.30
2023-02-27T16:22:06.445Z,3.38
2023-02-27T16:24:34.889Z,3.08
2023-02-27T16:27:02.771Z,3.35
2023-02-27T16:29:35.091Z,3.38
2023-02-27T16:32:05.053Z,3.13
2023-02-27T16:34:45.253Z,3.80
2023-02-27T16:37:20.145Z,3.78
2023-02-27T16:39:47.822Z,4.88
2023-02-27T16:42:15.297Z,3.53
2023-02-27T16:44:42.768Z,4.07
2023-02-27T16:47:11.692Z,3.90
2023-02-27T16:49:40.295Z,4.50
2023-02-27T16:52:09.540Z,3.85
2023-02-27T16:54:37.677Z,3.75
2023-02-27T16:57:05.488Z,3.38
2023-02-27T16:59:36.006Z,2.97
2023-02-27T17:02:06.101Z,3.40
2023-02-27T17:04:36.098Z,3.00
2023-02-27T17:07:06.487Z,3.38
2023-02-27T17:09:35.185Z,3.03
2023-02-27T17:12:02.694Z,2.83
2023-02-27T17:14:30.246Z,2.80
2023-02-27T17:17:00.480Z,3.88
2023-02-27T17:19:27.996Z,3.90
2023-02-27T17:21:57.005Z,3.80
2023-02-27T17:24:24.498Z,4.63
2023-02-27T17:26:52.636Z,4.30
2023-02-27T17:29:20.199Z,3.90
2023-02-27T17:31:47.909Z,4.43
2023-02-27T17:34:16.050Z,3.85
2023-02-27T17:36:44.222Z,4.40
2023-02-27T17:39:14.820Z,4.28
2023-02-27T17:41:43.447Z,5.13
2023-02-27T17:44:12.039Z,4.22
2023-02-27T17:46:40.392Z,4.10
2023-02-27T17:49:09.454Z,4.40
2023-02-27T17:51:37.082Z,4.40
2023-02-27T17:54:06.732Z,4.28
2023-02-27T17:56:36.907Z,4.18
2023-02-27T17:59:04.644Z,4.47
2023-02-27T18:01:32.234Z,4.30
2023-02-27T18:03:59.700Z,5.10
2023-02-27T18:06:27.672Z,5.40
2023-02-27T18:08:55.522Z,7.63
2023-02-27T18:11:23.525Z,6.32
2023-02-27T18:13:52.312Z,7.00
2023-02-27T18:16:21.812Z,7.25
2023-02-27T18:18:49.830Z,8.93
2023-02-27T18:21:20.878Z,6.25
2023-02-27T18:23:49.241Z,5.85
2023-02-27T18:26:28.923Z,6.50
2023-02-27T18:29:00.056Z,5.18
2023-02-27T18:31:30.088Z,6.03
2023-02-27T18:33:57.737Z,6.82
2023-02-27T18:36:25.353Z,8.13
2023-02-27T18:38:52.872Z,9.77
2023-02-27T18:41:20.373Z,10.43
2023-02-27T18:43:47.853Z,8.05
2023-02-27T18:46:16.954Z,7.25
2023-02-27T18:48:45.696Z,7.05
2023-02-27T18:51:15.322Z,8.02
2023-02-27T18:53:45.813Z,6.75
2023-02-27T18:56:15.117Z,7.05
2023-02-27T18:58:42.877Z,6.50
2023-02-27T19:01:20.803Z,5.68
2023-02-27T19:03:48.328Z,5.80
2023-02-27T19:06:15.839Z,6.00
2023-02-27T19:08:43.381Z,5.40
2023-02-27T19:11:10.880Z,5.20
2023-02-27T19:13:38.356Z,5.50
2023-02-27T19:16:06.608Z,6.10
2023-02-27T19:18:35.443Z,5.50
2023-02-27T19:21:04.237Z,5.45
2023-02-27T19:23:31.906Z,5.32
2023-02-27T19:25:59.688Z,5.63
2023-02-27T19:28:27.295Z,6.18
2023-02-27T19:30:54.802Z,6.18
2023-02-27T19:33:22.424Z,5.80
2023-02-27T19:35:51.452Z,5.65
2023-02-27T19:38:19.013Z,5.43
2023-02-27T19:40:46.534Z,5.55
2023-02-27T19:43:15.207Z,5.25
2023-02-27T19:45:42.893Z,5.80
2023-02-27T19:48:11.911Z,5.57
2023-02-27T19:50:40.992Z,5.63
2023-02-27T19:53:09.807Z,5.78
2023-02-27T19:55:37.603Z,5.15
2023-02-27T19:58:05.127Z,6.05
2023-02-27T20:00:32.661Z,5.88
2023-02-27T20:03:00.283Z,5.10
2023-02-27T20:05:27.863Z,4.05
2023-02-27T20:07:55.354Z,4.82
2023-02-27T20:10:24.269Z,4.30
2023-02-27T20:12:51.731Z,4.80
2023-02-27T20:15:19.493Z,5.03
2023-02-27T20:17:46.991Z,5.10
2023-02-27T20:20:15.052Z,5.28
2023-02-27T20:22:44.590Z,5.00
2023-02-27T20:25:13.640Z,4.75
2023-02-27T20:27:42.493Z,4.82
2023-02-27T20:30:11.796Z,4.88
2023-02-27T20:32:39.264Z,5.15
2023-02-27T20:35:08.003Z,4.85
2023-02-27T20:37:35.665Z,4.80
2023-02-27T20:40:04.155Z,5.75
2023-02-27T20:42:31.597Z,6.82
2023-02-27T20:45:00.400Z,6.00
2023-02-27T20:47:28.054Z,6.28
2023-02-27T20:49:55.516Z,5.65
2023-02-27T20:52:22.964Z,5.18
2023-02-27T20:54:50.418Z,4.60
2023-02-27T20:57:17.956Z,4.88
2023-02-27T20:59:45.494Z,5.03
2023-02-27T21:02:14.276Z,5.20
2023-02-27T21:04:47.041Z,4.72
2023-02-27T21:07:15.931Z,4.63
2023-02-27T21:09:43.570Z,4.75
2023-02-27T21:12:11.519Z,5.18
2023-02-27T21:14:38.992Z,5.72
2023-02-27T21:17:06.983Z,5.57
2023-02-27T21:19:36.719Z,5.50
2023-02-27T21:22:04.430Z,5.55
2023-02-27T21:24:32.363Z,5.60
2023-02-27T21:27:00.333Z,5.53
2023-02-27T21:29:27.772Z,5.95
2023-02-27T21:31:55.278Z,5.70
2023-02-27T21:34:26.024Z,5.60
2023-02-27T21:36:55.515Z,6.03
2023-02-27T21:39:25.616Z,5.50
2023-02-27T21:41:53.778Z,5.72
2023-02-27T21:44:24.847Z,5.22
2023-02-27T21:46:52.859Z,5.32
2023-02-27T21:49:22.528Z,5.40
2023-02-27T21:51:50.405Z,7.10
2023-02-27T21:54:20.277Z,8.45
2023-02-27T21:56:49.683Z,6.38
2023-02-27T21:59:18.778Z,6.57
2023-02-27T22:01:48.025Z,6.45
2023-02-27T22:04:16.964Z,6.15
2023-02-27T22:06:44.745Z,6.60
2023-02-27T22:09:12.420Z,6.70
2023-02-27T22:11:41.808Z,6.00
2023-02-27T22:14:10.815Z,6.13
2023-02-27T22:16:38.369Z,5.45
2023-02-27T22:19:07.526Z,7.00
2023-02-27T22:21:36.094Z,6.05
2023-02-27T22:24:03.559Z,6.25
2023-02-27T22:26:32.478Z,6.97
2023-02-27T22:29:01.368Z,6.43
2023-02-27T22:31:31.831Z,7.20
2023-02-27T22:34:02.099Z,8.45
2023-02-27T22:36:31.990Z,9.05
2023-02-27T22:38:59.896Z,9.25
2023-02-27T22:41:29.526Z,8.00
2023-02-27T22:43:57.407Z,8.13
2023-02-27T22:46:28.515Z,6.72
2023-02-27T22:48:56.856Z,6.18
2023-02-27T22:51:27.626Z,6.78
2023-02-27T22:53:56.743Z,6.65
2023-02-27T22:56:24.847Z,6.82
2023-02-27T22:58:52.609Z,6.68
2023-02-27T23:01:21.607Z,7.10
2023-02-27T23:03:52.419Z,7.03
2023-02-27T23:06:22.133Z,7.03
2023-02-27T23:08:49.969Z,7.20
2023-02-27T23:11:19.905Z,6.88
2023-02-27T23:13:47.791Z,6.90
2023-02-27T23:16:15.637Z,7.32
2023-02-27T23:18:45.903Z,7.70
2023-02-27T23:21:16.155Z,6.95
2023-02-27T23:23:44.244Z,6.43
2023-02-27T23:26:12.345Z,6.45
2023-02-27T23:28:40.046Z,7.20
2023-02-27T23:31:08.501Z,6.47
2023-02-27T23:33:36.522Z,7.00
2023-02-27T23:36:04.970Z,6.90
2023-02-27T23:38:33.814Z,7.38
2023-02-27T23:41:06.238Z,6.28
2023-02-27T23:43:33.932Z,5.97
2023-02-27T23:46:06.908Z,6.20
2023-02-27T23:48:34.897Z,5.75
2023-02-27T23:51:03.119Z,5.85
2023-02-27T23:53:30.927Z,5.65
2023-02-27T23:55:59.749Z,6.03
2023-02-27T23:58:27.231Z,5.75
